Mount Olive, Texas
Current Conditions -  °F | °C
As of 1:55 PM on Monday 24 Nov 2014 (Local Time) from KT20 Reporting Station
Clear Clear  
Wind Chill: 66°   Ceiling: Unl
Heat Index: 66°   Visibility: 10mi
Dew Point: 32°   Wind: 8mph
Humidity: 28%   Direction: 360°N
Pressure: 30.05"   Gusts: NA
Location:  29.4258°N, 97.1461°W
Report Text: KT20 241955Z AUTO 36007KT 10SM CLR 19/00 A3005 RMK AO2 T01910000
Loading
Personal Weather Stations






























Interactive Weather Map New forecast layout! Learn more

10-Day Weather Forecast

Advertisements
Track Severe Weather on mobile